Latest Weather Observations for Edinburgh

IDS60801

Issued at 3:11 pm CST Wednesday 20 June 2018 (issued every 10 minutes, with the page automatically refreshed every 10 minutes)

About weather observations | Map of weather stations | Latest weather observations for SA | Other Formats
Station Details ID: 023083 Name: EDINBURGH RAAF Lat: -34.71 Lon: 138.62 Height: 16.54 m
Data from the previous 72 hours. | See also: Recent months at Edinburgh
Date/Time
CST
Temp
°C
App
Temp
°C
Dew
Point
°C
Rel
Hum
%
Delta-T
°C
Wind Press
QNH
hPa
Press
MSL
hPa
Rain since
9am
mm
Dir  Spd
km/h
Gust
km/h
Spd
kts
Gust
kts
20/03:00pm 15.0 11.0 2.9 44 5.4 NNW 13 20 7 11 1025.1 1025.1 0.0
20/02:30pm 15.1 11.1 2.6 43 5.6 NW 13 19 7 10 1025.1 1025.1 0.0
20/02:00pm 14.8 11.0 3.9 48 5.0 NNW 13 17 7 9 1025.0 1025.0 0.0
20/01:30pm 14.8 10.5 3.0 45 5.3 N 15 24 8 13 1025.0 1025.0 0.0
20/01:00pm 14.5 10.3 3.9 49 4.8 N 15 22 8 12 1025.3 1025.3 0.0
20/12:30pm 13.9 8.9 3.7 50 4.6 NNW 19 28 10 15 1025.5 1025.5 0.0
20/12:00pm 13.9 8.9 3.4 49 4.7 NNW 19 22 10 12 1025.7 1025.7 0.0
20/11:30am 13.1 9.0 4.3 55 4.0 N 15 20 8 11 1026.2 1026.2 0.0
20/11:00am 12.6 8.8 4.1 56 3.8 N 13 20 7 11 1026.6 1026.6 0.0
20/10:30am 11.5 7.7 4.0 60 3.3 N 13 20 7 11 1026.6 1026.6 0.0
20/10:00am 10.3 6.6 4.2 66 2.7 NNE 13 17 7 9 1026.8 1026.8 0.0
20/09:30am 9.1 6.0 3.5 68 2.4 NE 9 11 5 6 1027.0 1027.0 0.0
20/09:00am 7.6 3.6 2.7 71 2.0 NE 13 15 7 8 1026.6 1026.6 0.0
20/08:30am 7.6 3.6 2.7 71 2.0 NE 13 17 7 9 1026.1 1026.1 0.0
20/08:00am 7.2 3.1 2.3 71 2.0 ENE 13 15 7 8 1025.6 1025.6 0.0
20/07:30am 6.4 2.3 2.3 75 1.7 NE 13 15 7 8 1025.7 1025.7 0.0
20/07:00am 6.3 2.2 2.0 74 1.7 NE 13 17 7 9 1025.5 1025.5 0.0
20/06:30am 6.4 2.3 2.5 76 1.6 NE 13 15 7 8 1025.2 1025.2 0.0
20/06:00am 6.3 2.2 2.4 76 1.6 NE 13 17 7 9 1025.2 1025.2 0.0
20/05:30am 7.0 2.6 2.5 73 1.8 NE 15 17 8 9 1025.1 1025.1 0.0
20/05:00am 6.5 2.5 2.8 77 1.5 NE 13 19 7 10 1025.0 1025.0 0.0
20/04:30am 6.7 2.7 2.6 75 1.7 NE 13 17 7 9 1024.7 1024.7 0.0
20/04:00am 7.1 3.1 3.0 75 1.7 NE 13 13 7 7 1024.8 1024.8 0.0
20/03:30am 7.2 3.3 3.4 77 1.6 NE 13 15 7 8 1025.0 1025.0 0.0
20/03:00am 7.5 3.6 3.4 75 1.7 NE 13 15 7 8 1024.6 1024.6 0.0
20/02:30am 7.2 3.7 3.4 77 1.6 NE 11 15 6 8 1024.7 1024.7 0.0
20/02:00am 7.2 3.7 3.6 78 1.5 NE 11 13 6 7 1025.1 1025.1 0.0
20/01:30am 7.5 4.1 4.1 79 1.5 NE 11 15 6 8 1024.9 1024.9 0.0
20/01:00am 7.3 3.5 4.1 80 1.4 NE 13 15 7 8 1024.9 1024.9 0.0
20/12:30am 7.5 4.1 4.1 79 1.5 NE 11 13 6 7 1025.2 1025.2 0.0
20/12:00am 7.7 4.4 4.3 79 1.5 ENE 11 13 6 7 1025.4 1025.4 0.0
 
Date/Time
CST
Temp
°C
App
Temp
°C
Dew
Point
°C
Rel
Hum
%
Delta-T
°C
Wind Press
QNH
hPa
Press
MSL
hPa
Rain since
9am
mm
Dir  Spd
km/h
Gust
km/h
Spd
kts
Gust
kts
19/11:30pm 6.8 4.2 4.1 83 1.2 NNE 7 9 4 5 1025.6 1025.6 0.0
19/11:00pm 6.5 4.0 3.5 81 1.3 N 6 7 3 4 1025.4 1025.4 0.0
19/10:30pm 6.5 3.7 3.3 80 1.3 NNE 7 9 4 5 1025.2 1025.2 0.0
19/10:00pm 7.4 4.7 3.6 77 1.6 NE 7 11 4 6 1025.0 1025.0 0.0
19/09:30pm 8.1 5.0 3.6 73 1.9 NE 9 13 5 7 1024.7 1024.7 0.0
19/09:00pm 8.6 5.1 3.6 71 2.1 NE 11 15 6 8 1025.0 1025.0 0.0
19/08:30pm 8.3 4.5 3.8 73 1.9 NE 13 15 7 8 1025.3 1025.3 0.0
19/08:00pm 8.6 4.4 4.0 73 2.0 NE 15 17 8 9 1025.3 1025.3 0.0
19/07:30pm 8.5 4.4 4.1 74 1.9 NE 15 19 8 10 1025.2 1025.2 0.0
19/07:00pm 8.9 5.2 4.3 73 2.0 NE 13 19 7 10 1025.0 1025.0 0.0
19/06:30pm 8.3 4.6 4.5 77 1.7 NNE 13 17 7 9 1025.4 1025.4 0.0
19/06:00pm 8.8 5.2 4.8 76 1.8 NE 13 15 7 8 1025.1 1025.1 0.0
19/05:30pm 9.0 4.9 4.6 74 1.9 NNE 15 17 8 9 1025.1 1025.1 0.0
19/05:00pm 10.2 6.5 4.6 68 2.5 N 13 17 7 9 1025.1 1025.1 0.0
19/04:30pm 11.0 7.4 4.9 66 2.8 N 13 17 7 9 1025.1 1025.1 0.0
19/04:00pm 11.6 6.8 4.6 62 3.2 NNW 19 24 10 13 1025.1 1025.1 0.0
19/03:30pm 12.6 8.3 5.1 60 3.4 N 17 22 9 12 1025.1 1025.1 0.0
19/03:00pm 12.1 7.7 4.8 61 3.3 NNW 17 24 9 13 1025.0 1025.0 0.0
19/02:30pm 11.7 6.7 4.7 62 3.2 NNW 20 26 11 14 1025.3 1025.3 0.0
19/02:00pm 12.1 7.0 4.3 59 3.5 NNW 20 26 11 14 1025.3 1025.3 0.0
19/01:30pm 12.3 6.8 4.0 57 3.7 NNW 22 32 12 17 1025.3 1025.3 0.0
19/01:00pm 12.5 7.4 4.0 56 3.8 NNW 20 28 11 15 1025.7 1025.7 0.0
19/12:30pm 12.6 7.5 4.3 57 3.7 NNW 20 30 11 16 1026.3 1026.3 0.0
19/12:00pm 12.0 7.1 4.2 59 3.5 N 19 24 10 13 1026.8 1026.8 0.0
19/11:30am 11.7 7.9 5.6 66 2.8 NNE 15 19 8 10 1027.4 1027.4 0.0
19/11:00am 10.8 6.4 4.7 66 2.8 NNE 17 20 9 11 1027.7 1027.7 0.0
19/10:30am 10.6 6.2 4.5 66 2.7 NNE 17 22 9 12 1027.7 1027.7 0.0
19/10:00am 9.6 4.7 4.2 69 2.4 NNE 19 26 10 14 1028.1 1028.1 0.0
19/09:30am 8.8 3.6 3.6 70 2.2 NE 20 24 11 13 1027.9 1027.9 0.0
19/09:00am 7.9 2.9 3.8 75 1.8 NE 19 26 10 14 1027.8 1027.8 0.0
19/08:30am 7.6 3.0 3.6 76 1.7 NE 17 20 9 11 1027.8 1027.8 0.0
19/08:00am 6.8 2.5 3.4 79 1.4 NE 15 17 8 9 1027.8 1027.8 0.0
19/07:30am 5.6 1.6 2.9 83 1.1 NE 13 17 7 9 1027.7 1027.7 0.0
19/07:00am 5.3 1.3 3.0 85 0.9 NE 13 15 7 8 1027.6 1027.6 0.0
19/06:30am 5.0 1.0 2.9 86 0.9 NE 13 15 7 8 1027.7 1027.7 0.0
19/06:00am 5.3 1.7 3.0 85 0.9 ENE 11 13 6 7 1027.8 1027.8 0.0
19/05:30am 5.0 1.7 2.7 85 0.9 NE 9 11 5 6 1027.8 1027.8 0.0
19/05:00am 5.7 2.1 3.0 83 1.1 NNE 11 11 6 6 1028.1 1028.1 0.0
19/04:30am 7.8 3.6 4.0 77 1.6 ENE 15 19 8 10 1027.4 1027.4 0.0
19/04:00am 8.2 4.9 4.8 79 1.5 ENE 11 13 6 7 1028.4 1028.4 0.0
19/03:30am 7.6 4.8 5.1 84 1.1 N 9 11 5 6 1028.7 1028.7 0.0
19/03:00am 8.0 5.1 4.8 80 1.4 NE 9 9 5 5 1028.2 1028.2 0.0
19/02:30am 7.8 5.2 4.4 79 1.5 NNE 7 9 4 5 1028.3 1028.3 0.0
19/02:00am 9.2 6.3 4.4 72 2.1 ENE 9 11 5 6 1028.2 1028.2 0.0
19/01:30am 9.8 6.9 4.4 69 2.4 ENE 9 11 5 6 1028.4 1028.4 0.0
19/01:00am 10.0 7.0 4.2 67 2.6 E 9 13 5 7 1028.6 1028.6 0.0
19/12:30am 9.9 7.3 4.3 68 2.5 ENE 7 11 4 6 1028.3 1028.3 0.0
19/12:00am 10.3 6.5 4.0 65 2.8 ENE 13 20 7 11 1027.7 1027.7 0.0
 
Date/Time
CST
Temp
°C
App
Temp
°C
Dew
Point
°C
Rel
Hum
%
Delta-T
°C
Wind Press
QNH
hPa
Press
MSL
hPa
Rain since
9am
mm
Dir  Spd
km/h
Gust
km/h
Spd
kts
Gust
kts
18/11:30pm 10.3 7.4 4.5 67 2.6 NE 9 15 5 8 1029.3 1029.3 0.0
18/11:00pm 10.7 7.7 4.0 63 3.0 ESE 9 13 5 7 1029.8 1029.8 0.0
18/10:30pm 10.8 7.5 4.3 64 2.9 ENE 11 17 6 9 1029.6 1029.6 0.0
18/10:00pm 10.8 7.5 4.7 66 2.8 E 11 15 6 8 1029.5 1029.5 0.0
18/09:30pm 10.9 8.4 5.0 67 2.7 ESE 7 9 4 5 1029.5 1029.5 0.0
18/09:00pm 10.2 8.2 7.1 81 1.5 ENE 7 11 4 6 1028.8 1028.8 0.0
18/08:30pm 10.6 8.6 7.1 79 1.7 ESE 7 9 4 5 1028.2 1028.2 0.0
18/08:00pm 10.7 8.7 7.0 78 1.8 ESE 7 9 4 5 1028.5 1028.5 0.0
18/07:30pm 10.7 10.0 7.0 78 1.7 CALM 0 0 0 0 1028.9 1028.9 0.0
18/07:00pm 10.5 9.9 7.2 80 1.6 CALM 0 0 0 0 1029.1 1029.1 0.0
18/06:30pm 10.2 8.3 7.6 84 1.2 SSW 7 9 4 5 1029.0 1029.0 0.0
18/06:00pm 10.3 7.9 7.2 81 1.5 SW 9 9 5 5 1029.1 1029.1 0.0
18/05:30pm 10.9 9.0 7.6 80 1.6 SW 7 9 4 5 1029.3 1029.3 0.0
18/05:00pm 11.1 8.4 7.2 77 1.9 WSW 11 13 6 7 1029.2 1029.2 0.0
18/04:30pm 11.4 8.7 7.3 76 2.0 WSW 11 15 6 8 1029.2 1029.2 0.0
18/04:00pm 11.7 9.0 7.2 74 2.2 WSW 11 13 6 7 1029.2 1029.2 0.0
18/03:30pm 12.3 10.6 7.6 73 2.3 WSW 6 9 3 5 1029.1 1029.1 0.0
18/03:00pm 12.3 11.0 6.1 66 2.9 W 2 6 1 3 1029.2 1029.2 0.0
18/02:30pm 12.5 11.0 6.8 68 2.7 WNW 4 9 2 5 1029.2 1029.2 0.0
18/02:00pm 12.3 9.8 6.6 68 2.7 N 9 13 5 7 1029.4 1029.4 0.0
18/01:30pm 12.0 10.1 6.7 70 2.5 NW 6 9 3 5 1030.0 1030.0 0.0
18/01:00pm 11.9 10.8 6.8 71 2.4 N 2 7 1 4 1030.1 1030.1 0.0
18/12:30pm 11.6 8.7 6.7 72 2.3 NE 11 15 6 8 1030.5 1030.5 0.0
18/12:00pm 11.7 9.5 6.0 68 2.6 N 7 13 4 7 1031.0 1031.0 0.0
18/11:30am 12.0 10.0 6.1 67 2.7 NNE 6 9 3 5 1031.3 1031.3 0.0
18/11:00am 11.2 9.2 6.1 71 2.4 NNW 6 7 3 4 1031.7 1031.7 0.0
18/10:30am 11.1 9.5 6.5 73 2.1 NW 4 7 2 4 1031.9 1031.9 0.0
18/10:00am 10.2 9.1 7.1 81 1.5 NW 2 7 1 4 1032.1 1032.1 0.0
18/09:30am 8.6 6.7 6.9 89 0.8 NW 6 7 3 4 1031.8 1031.8 0.0
18/09:00am 7.2 5.9 6.1 93 0.5 NNE 2 6 1 3 1031.7 1031.7 0.2
18/08:30am 6.3 4.1 5.3 93 0.4 NE 6 7 3 4 1031.4 1031.4 0.2
18/08:00am 5.2 2.6 4.2 93 0.4 NNE 7 9 4 5 1031.1 1031.1 0.2
18/07:30am 4.1 2.6 2.9 92 0.5 CALM 0 0 0 0 1030.7 1030.7 0.2
18/07:01am 4.6 3.2 3.3 91 0.5 CALM 0 0 0 0 1030.2 1030.2 0.2
18/07:00am 4.7 3.3 3.4 91 0.5 CALM 0 0 0 0 1030.1 1030.1 0.2
18/06:30am 5.6 3.9 4.2 91 0.6 E 2 6 1 3 1029.8 1029.8 0.2
18/06:00am 5.4 2.9 3.9 90 0.6 NNE 6 7 3 4 1029.7 1029.7 0.2
18/05:30am 7.2 5.1 5.7 90 0.7 ESE 6 7 3 4 1029.7 1029.7 0.2
18/05:00am 6.7 4.3 5.2 90 0.7 S 7 11 4 6 1029.9 1029.9 0.2
18/04:30am 6.3 3.9 4.5 88 0.8 N 6 7 3 4 1029.8 1029.8 0.2
18/04:00am 8.2 6.5 5.8 85 1.1 ESE 4 6 2 3 1029.7 1029.7 0.2
18/03:30am 8.0 6.7 6.1 88 0.9 ENE 2 6 1 3 1029.8 1029.8 0.2
18/03:00am 8.1 6.8 6.2 88 0.9 ENE 2 6 1 3 1029.9 1029.9 0.2
18/02:30am 8.3 6.3 6.3 87 0.9 ENE 6 6 3 3 1029.7 1029.7 0.2
18/02:00am 8.2 6.9 6.2 87 0.9 NNE 2 6 1 3 1029.7 1029.7 0.2
18/01:30am 8.5 7.3 6.3 86 1.0 ESE 2 6 1 3 1029.7 1029.7 0.2
18/01:00am 8.5 6.4 5.6 82 1.3 E 6 7 3 4 1029.6 1029.6 0.2
18/12:30am 8.2 7.1 5.0 80 1.4 CALM 0 0 0 0 1029.6 1029.6 0.2
18/12:00am 8.2 7.0 4.4 77 1.6 CALM 0 0 0 0 1029.7 1029.7 0.2
 
Date/Time
CST
Temp
°C
App
Temp
°C
Dew
Point
°C
Rel
Hum
%
Delta-T
°C
Wind Press
QNH
hPa
Press
MSL
hPa
Rain since
9am
mm
Dir  Spd
km/h
Gust
km/h
Spd
kts
Gust
kts
17/11:30pm 8.1 6.8 3.9 75 1.8 CALM 0 0 0 0 1029.9 1029.9 0.2
17/11:00pm 9.5 7.5 4.5 71 2.2 SSW 4 7 2 4 1030.1 1030.1 0.2
17/10:30pm 9.5 7.1 5.1 74 2.0 SSW 7 9 4 5 1030.1 1030.1 0.2
17/10:00pm 9.8 6.6 5.2 73 2.1 SSW 11 17 6 9 1029.9 1029.9 0.2
17/09:30pm 9.5 6.9 5.9 78 1.6 SSW 9 11 5 6 1029.9 1029.9 0.2
17/09:00pm 9.5 7.3 6.4 81 1.4 SSW 7 11 4 6 1030.0 1030.0 0.2
17/08:30pm 9.4 7.0 6.8 84 1.2 SSW 9 11 5 6 1029.6 1029.6 0.2
17/08:00pm 8.8 6.9 6.9 88 0.9 WSW 6 7 3 4 1029.5 1029.5 0.2
17/07:30pm 9.4 8.4 7.2 86 1.0 ESE 2 6 1 3 1029.3 1029.3 0.2
17/07:00pm 9.4 7.6 7.0 85 1.1 ESE 6 7 3 4 1029.2 1029.2 0.2
17/06:30pm 9.8 8.0 7.2 84 1.2 S 6 9 3 5 1028.9 1028.9 0.2
17/06:00pm 9.9 7.6 7.3 84 1.2 SSW 9 13 5 7 1028.6 1028.6 0.2
17/05:30pm 9.5 5.9 6.9 84 1.2 SW 15 19 8 10 1028.5 1028.5 0.2
17/05:00pm 9.9 6.4 7.3 84 1.2 SW 15 19 8 10 1028.3 1028.3 0.2
17/04:30pm 10.8 4.4 7.1 78 1.7 SSW 30 43 16 23 1028.1 1028.1 0.2
17/04:00pm 12.1 5.7 5.3 63 3.1 SSW 28 33 15 18 1027.7 1027.7 0.2
17/03:30pm 12.4 5.0 4.1 57 3.7 SSW 32 39 17 21 1027.6 1027.6 0.2

Other Formats:

Comma delimited format used in spreadsheet applications
http://www.bom.gov.au/fwo/IDS60801/IDS60801.95676.axf

JavaScript Object Notation format (JSON) in row-major order
http://www.bom.gov.au/fwo/IDS60801/IDS60801.95676.json